Time;durP1;ratioP1;P1;durP2;ratioP2;P2;SDS_P1;SDS_P2;PMS_P1;PMS_P2;Temp;Humidity;BMP_temperature;BMP_pressure;BME280_temperature;BME280_humidity;BME280_pressure;Samples;Min_cycle;Max_cycle;Signal;HPM_P1;HPM_P2
2021/03/19 00:01:26;;;;;;;7.32;2.50;;;8.40;88.50;;;;;;5048964;28;20968;-74
2021/03/19 00:03:52;;;;;;;6.07;2.40;;;8.50;88.90;;;;;;5029403;28;22847;-75
2021/03/19 00:06:19;;;;;;;4.37;2.10;;;8.50;89.10;;;;;;5047813;28;20421;-74
2021/03/19 00:08:45;;;;;;;7.38;2.50;;;8.40;89.30;;;;;;5046926;28;20433;-74
2021/03/19 00:11:12;;;;;;;5.18;2.25;;;8.40;89.30;;;;;;5046446;28;20425;-73
2021/03/19 00:13:38;;;;;;;5.22;2.10;;;8.40;89.10;;;;;;5045344;28;20429;-74
2021/03/19 00:16:07;;;;;;;5.35;2.00;;;8.40;89.10;;;;;;5047041;28;20424;-74
2021/03/19 00:18:35;;;;;;;5.30;2.20;;;8.40;88.90;;;;;;5046930;28;20444;-75
2021/03/19 00:21:02;;;;;;;3.83;2.30;;;8.40;89.30;;;;;;5045217;28;20461;-73
2021/03/19 00:23:31;;;;;;;5.43;2.30;;;8.40;89.00;;;;;;5047780;28;20421;-73
2021/03/19 00:25:58;;;;;;;4.97;2.40;;;8.40;88.90;;;;;;5030610;28;20447;-73
2021/03/19 00:28:24;;;;;;;5.55;2.40;;;8.40;89.40;;;;;;5047971;28;21540;-76
2021/03/19 00:30:52;;;;;;;5.75;2.45;;;8.30;89.60;;;;;;5046214;28;20429;-73
2021/03/19 00:33:21;;;;;;;6.32;2.50;;;8.30;90.20;;;;;;5026750;28;20864;-76
2021/03/19 00:36:00;;;;;;;5.95;2.50;;;8.30;90.00;;;;;;5027287;28;20504;-74
2021/03/19 00:38:27;;;;;;;7.05;2.67;;;8.20;90.20;;;;;;5030672;28;20429;-75
2021/03/19 00:40:54;;;;;;;6.78;2.47;;;8.10;90.10;;;;;;5028078;28;20456;-74
2021/03/19 00:43:21;;;;;;;6.68;2.70;;;8.10;90.30;;;;;;5044109;28;20429;-73
2021/03/19 00:45:48;;;;;;;5.97;2.60;;;8.10;90.40;;;;;;5045821;28;20478;-73
2021/03/19 00:48:16;;;;;;;6.70;2.67;;;8.10;90.70;;;;;;5029092;28;20777;-73
2021/03/19 00:50:43;;;;;;;8.43;2.80;;;8.00;90.60;;;;;;5046559;28;20425;-72
2021/03/19 00:53:11;;;;;;;8.38;2.55;;;8.00;90.60;;;;;;5028811;28;20484;-74
2021/03/19 00:55:39;;;;;;;5.95;2.83;;;7.90;90.60;;;;;;5044822;28;20440;-74
2021/03/19 00:58:08;;;;;;;6.30;2.67;;;7.90;90.70;;;;;;5029202;28;20432;-73
2021/03/19 01:00:37;;;;;;;8.52;2.75;;;7.90;91.00;;;;;;5025466;28;20774;-73
2021/03/19 01:03:04;;;;;;;5.80;2.67;;;7.90;91.10;;;;;;5025983;28;20421;-74
2021/03/19 01:05:34;;;;;;;5.03;2.80;;;7.80;91.10;;;;;;5046036;28;20460;-74
2021/03/19 01:08:02;;;;;;;7.25;2.83;;;7.70;91.00;;;;;;5044889;28;21158;-73
2021/03/19 01:10:33;;;;;;;8.27;2.72;;;7.70;91.30;;;;;;5029150;28;20429;-73
2021/03/19 01:13:07;;;;;;;7.03;3.05;;;7.70;91.40;;;;;;5025983;28;20960;-73
2021/03/19 01:15:39;;;;;;;6.55;2.90;;;7.60;91.40;;;;;;5044804;28;20497;-74
2021/03/19 01:18:08;;;;;;;7.30;3.20;;;7.60;91.50;;;;;;5030564;28;20429;-75
2021/03/19 01:20:37;;;;;;;9.55;3.10;;;7.60;91.50;;;;;;5046635;28;20494;-72
2021/03/19 01:23:04;;;;;;;6.32;3.00;;;7.60;91.60;;;;;;5045231;28;20425;-73
2021/03/19 01:25:32;;;;;;;8.13;3.22;;;7.50;91.80;;;;;;5027041;28;20442;-74
2021/03/19 01:28:00;;;;;;;7.37;2.93;;;7.50;91.70;;;;;;5043911;28;20925;-75
2021/03/19 01:30:31;;;;;;;6.93;3.13;;;7.50;92.00;;;;;;5028914;28;20972;-73
2021/03/19 01:32:58;;;;;;;7.67;3.17;;;7.50;92.00;;;;;;5042966;28;20486;-72
2021/03/19 01:35:26;;;;;;;7.43;3.15;;;7.50;92.10;;;;;;5046270;28;20520;-72
2021/03/19 01:37:53;;;;;;;6.88;2.97;;;7.50;92.20;;;;;;5043733;28;20781;-73
2021/03/19 01:40:24;;;;;;;6.93;2.83;;;7.50;92.30;;;;;;5045589;28;20476;-73
2021/03/19 01:42:55;;;;;;;7.65;3.22;;;7.40;92.30;;;;;;5043530;28;20429;-72
2021/03/19 01:45:53;;;;;;;8.40;3.30;;;7.40;92.40;;;;;;5023970;28;20442;-75
2021/03/19 01:48:56;;;;;;;7.53;3.00;;;7.40;92.30;;;;;;5024559;28;20419;-73
2021/03/19 01:52:00;;;;;;;8.90;3.45;;;7.40;92.30;;;;;;5025616;28;20437;-73
2021/03/19 01:55:04;;;;;;;10.45;3.30;;;7.30;92.40;;;;;;5022829;28;20919;-74
2021/03/19 01:58:10;;;;;;;8.40;3.45;;;7.30;92.40;;;;;;5022811;28;20434;-73
2021/03/19 02:01:15;;;;;;;8.88;3.40;;;7.30;92.50;;;;;;5026045;28;20434;-74
2021/03/19 02:04:19;;;;;;;9.10;3.40;;;7.30;92.50;;;;;;5022735;28;20501;-74
2021/03/19 02:07:27;;;;;;;8.53;3.50;;;7.30;92.50;;;;;;5022525;28;20429;-75
2021/03/19 02:10:31;;;;;;;7.35;3.33;;;7.20;92.60;;;;;;5024987;28;21252;-73
2021/03/19 02:13:35;;;;;;;10.32;3.40;;;7.20;92.70;;;;;;5021771;28;20435;-77
2021/03/19 02:16:40;;;;;;;8.00;2.83;;;7.20;92.80;;;;;;5022706;28;20510;-75
2021/03/19 02:19:44;;;;;;;7.25;3.08;;;7.20;92.80;;;;;;5021717;28;20485;-74
2021/03/19 02:22:48;;;;;;;9.65;3.15;;;7.10;92.80;;;;;;5021808;28;20483;-73
2021/03/19 02:25:57;;;;;;;10.48;3.25;;;7.10;93.00;;;;;;5024902;28;20419;-73
2021/03/19 02:29:07;;;;;;;8.57;3.22;;;7.10;93.00;;;;;;5022860;28;20838;-75
2021/03/19 02:32:08;;;;;;;10.63;3.20;;;7.10;93.00;;;;;;5022789;28;20501;-74
2021/03/19 02:34:43;;;;;;;9.43;3.10;;;7.00;93.00;;;;;;5025383;28;20518;-73
2021/03/19 02:37:13;;;;;;;10.05;2.97;;;7.00;93.20;;;;;;5026762;28;20415;-74
2021/03/19 02:39:42;;;;;;;9.63;3.00;;;7.00;93.10;;;;;;5023891;28;20434;-74
2021/03/19 02:42:13;;;;;;;9.15;3.10;;;7.00;93.30;;;;;;5023849;28;20418;-74
2021/03/19 02:44:41;;;;;;;10.23;3.10;;;7.00;93.30;;;;;;5032179;28;20479;-74
2021/03/19 02:47:13;;;;;;;11.57;2.80;;;7.00;93.40;;;;;;5045111;28;20503;-73
2021/03/19 02:49:40;;;;;;;11.38;3.00;;;7.00;93.30;;;;;;5043245;28;20785;-72
2021/03/19 02:52:10;;;;;;;11.40;3.03;;;7.00;93.30;;;;;;5026874;28;20482;-74
2021/03/19 02:54:44;;;;;;;9.53;2.80;;;6.90;93.30;;;;;;5041672;28;20425;-73
2021/03/19 02:57:14;;;;;;;9.73;2.80;;;6.90;93.40;;;;;;5042442;28;20508;-72
2021/03/19 02:59:42;;;;;;;11.57;2.97;;;6.90;93.40;;;;;;5046823;28;20504;-72
2021/03/19 03:02:11;;;;;;;11.50;3.08;;;6.90;93.50;;;;;;5031286;28;20416;-74
2021/03/19 03:04:44;;;;;;;7.40;2.70;;;6.90;93.60;;;;;;5050470;28;20412;-73
2021/03/19 03:07:32;;;;;;;9.00;2.78;;;6.90;93.50;;;;;;5048131;28;20929;-74
2021/03/19 03:10:09;;;;;;;12.38;2.72;;;6.80;93.60;;;;;;5027406;28;20536;-73
2021/03/19 03:12:45;;;;;;;8.57;2.50;;;6.80;93.80;;;;;;5029717;28;20512;-73
2021/03/19 03:15:16;;;;;;;13.40;2.80;;;6.80;93.80;;;;;;5027707;28;20440;-73
2021/03/19 03:17:49;;;;;;;10.27;3.17;;;6.80;93.90;;;;;;5030238;28;20751;-73
2021/03/19 03:20:22;;;;;;;9.38;2.90;;;6.80;93.80;;;;;;5030327;28;20989;-73
2021/03/19 03:22:50;;;;;;;8.60;2.90;;;6.80;93.90;;;;;;5029495;28;20428;-74
2021/03/19 03:25:18;;;;;;;11.05;3.50;;;6.80;94.00;;;;;;5048853;28;20520;-74
2021/03/19 03:27:45;;;;;;;13.88;3.13;;;6.80;93.90;;;;;;5028380;28;20494;-73
2021/03/19 03:30:20;;;;;;;9.70;3.25;;;6.80;93.90;;;;;;5044813;28;20432;-73
2021/03/19 03:32:48;;;;;;;11.20;2.95;;;6.70;94.00;;;;;;5043352;28;20465;-73
2021/03/19 03:35:16;;;;;;;10.13;3.10;;;6.70;94.00;;;;;;5030473;28;20429;-74
2021/03/19 03:37:44;;;;;;;14.25;3.13;;;6.70;94.00;;;;;;5046763;28;20554;-73
2021/03/19 03:40:14;;;;;;;10.38;3.05;;;6.70;94.10;;;;;;5048437;28;20431;-74
2021/03/19 03:42:44;;;;;;;11.35;3.00;;;6.60;94.00;;;;;;5026664;28;20430;-73
2021/03/19 03:45:12;;;;;;;12.20;3.25;;;6.60;94.10;;;;;;5047674;28;20429;-75
2021/03/19 03:47:39;;;;;;;10.00;3.20;;;6.60;94.10;;;;;;5045826;28;20429;-73
2021/03/19 03:50:08;;;;;;;11.30;3.22;;;6.50;94.20;;;;;;5046428;28;20804;-73
2021/03/19 03:52:35;;;;;;;10.07;3.40;;;6.50;94.30;;;;;;5045331;28;20433;-73
2021/03/19 03:55:02;;;;;;;10.88;3.10;;;6.50;94.30;;;;;;5032293;28;20499;-74
2021/03/19 03:57:28;;;;;;;10.80;2.92;;;6.50;94.40;;;;;;5041936;28;22609;-73
2021/03/19 03:59:58;;;;;;;12.43;3.13;;;6.50;94.40;;;;;;5026376;28;21553;-74
2021/03/19 04:02:27;;;;;;;12.00;3.00;;;6.40;94.40;;;;;;5046461;28;20524;-73
2021/03/19 04:04:54;;;;;;;10.20;3.55;;;6.40;94.50;;;;;;5028199;28;20428;-74
2021/03/19 04:07:22;;;;;;;12.00;3.47;;;6.40;94.60;;;;;;5045568;28;20444;-73
2021/03/19 04:09:51;;;;;;;11.10;3.70;;;6.40;94.60;;;;;;5028709;28;20790;-72
2021/03/19 04:12:17;;;;;;;11.95;3.40;;;6.40;94.70;;;;;;5044604;28;20441;-73
2021/03/19 04:14:44;;;;;;;15.57;3.80;;;6.40;94.70;;;;;;5047537;28;20441;-72
2021/03/19 04:17:23;;;;;;;10.68;4.32;;;6.30;94.70;;;;;;5044851;28;20425;-73
2021/03/19 04:19:49;;;;;;;12.07;4.35;;;6.40;94.80;;;;;;5044348;28;20871;-75
2021/03/19 04:22:16;;;;;;;10.95;3.78;;;6.30;94.90;;;;;;5044981;28;20493;-74
2021/03/19 04:24:44;;;;;;;10.07;3.60;;;6.30;94.90;;;;;;5027276;28;20452;-74
2021/03/19 04:27:13;;;;;;;13.20;3.30;;;6.30;95.00;;;;;;5044979;28;20432;-73
2021/03/19 04:29:40;;;;;;;10.27;3.33;;;6.30;95.10;;;;;;5048074;28;20437;-74
2021/03/19 04:32:06;;;;;;;11.43;3.10;;;6.30;95.10;;;;;;5047396;28;20436;-73
2021/03/19 04:34:32;;;;;;;11.27;3.63;;;6.30;95.10;;;;;;5029625;28;20432;-74
2021/03/19 04:36:59;;;;;;;11.47;3.50;;;6.20;95.10;;;;;;5046681;28;20436;-74
2021/03/19 04:39:28;;;;;;;15.07;3.53;;;6.30;95.30;;;;;;5042418;28;20433;-73
2021/03/19 04:41:58;;;;;;;10.70;3.20;;;6.30;95.30;;;;;;5027420;28;20429;-73
2021/03/19 04:44:30;;;;;;;12.32;3.47;;;6.30;95.50;;;;;;5028829;28;20433;-73
2021/03/19 04:46:56;;;;;;;8.38;3.00;;;6.20;95.10;;;;;;5045056;28;20421;-73
2021/03/19 04:49:23;;;;;;;12.15;3.17;;;6.20;95.10;;;;;;5029686;28;20785;-72
2021/03/19 04:51:49;;;;;;;11.02;3.10;;;6.20;95.20;;;;;;5047224;28;20446;-73
2021/03/19 04:54:18;;;;;;;10.90;3.10;;;6.20;95.30;;;;;;5046282;28;20959;-75
2021/03/19 04:56:45;;;;;;;13.05;3.10;;;6.20;95.30;;;;;;5044394;28;20770;-73
2021/03/19 04:59:13;;;;;;;12.50;3.25;;;6.20;95.30;;;;;;5043760;28;20447;-75
2021/03/19 05:01:48;;;;;;;13.40;3.00;;;6.20;95.40;;;;;;5028941;28;20435;-75
2021/03/19 05:04:15;;;;;;;10.40;3.20;;;6.20;95.40;;;;;;5027499;28;20429;-75
2021/03/19 05:06:41;;;;;;;14.50;3.20;;;6.20;95.60;;;;;;5045232;28;20460;-74
2021/03/19 05:09:07;;;;;;;11.30;2.95;;;6.20;95.60;;;;;;5043867;28;20429;-75
2021/03/19 05:11:35;;;;;;;11.95;3.30;;;6.20;95.80;;;;;;5040421;28;20426;-75
2021/03/19 05:14:02;;;;;;;9.80;3.17;;;6.20;95.90;;;;;;5038091;28;20765;-75
2021/03/19 05:16:29;;;;;;;13.90;3.10;;;6.20;95.90;;;;;;5026596;28;20479;-74
2021/03/19 05:18:56;;;;;;;14.65;3.67;;;6.20;95.90;;;;;;5045741;28;20428;-73
2021/03/19 05:21:22;;;;;;;11.68;3.13;;;6.20;95.90;;;;;;5043398;28;20478;-75
2021/03/19 05:23:49;;;;;;;11.55;3.50;;;6.20;95.90;;;;;;5046184;28;20425;-74
2021/03/19 05:26:15;;;;;;;11.23;3.83;;;6.20;95.90;;;;;;5043364;28;20518;-74
2021/03/19 05:28:41;;;;;;;11.18;3.70;;;6.20;96.00;;;;;;5045477;28;20897;-76
2021/03/19 05:31:08;;;;;;;12.75;3.80;;;6.20;96.20;;;;;;5044412;28;20951;-74
2021/03/19 05:33:45;;;;;;;11.98;3.58;;;6.20;96.20;;;;;;5025501;28;20437;-74
2021/03/19 05:36:13;;;;;;;19.95;4.15;;;6.20;96.30;;;;;;5043451;28;20429;-77
2021/03/19 05:38:39;;;;;;;13.43;4.20;;;6.20;96.30;;;;;;5046845;28;20486;-76
2021/03/19 05:41:06;;;;;;;14.10;4.40;;;6.20;96.40;;;;;;5044070;28;20428;-76
2021/03/19 05:43:36;;;;;;;14.75;4.55;;;6.20;96.30;;;;;;5046981;28;20421;-75
2021/03/19 05:46:06;;;;;;;17.00;4.50;;;6.20;96.40;;;;;;5044893;28;20428;-76
2021/03/19 05:48:40;;;;;;;13.23;4.70;;;6.10;96.30;;;;;;5045411;28;20432;-75
2021/03/19 05:51:19;;;;;;;11.88;4.20;;;6.20;96.40;;;;;;5043710;28;20437;-75
2021/03/19 05:53:53;;;;;;;15.27;5.23;;;6.10;96.50;;;;;;5029139;28;20487;-75
2021/03/19 05:56:23;;;;;;;17.13;6.33;;;6.10;96.60;;;;;;5043420;28;20515;-74
2021/03/19 05:58:49;;;;;;;12.50;4.25;;;6.20;96.60;;;;;;5044208;28;20436;-75
2021/03/19 06:01:16;;;;;;;13.82;4.25;;;6.20;96.60;;;;;;5040283;28;20444;-75
2021/03/19 06:03:45;;;;;;;14.55;4.72;;;6.20;96.60;;;;;;5042844;28;20835;-76
2021/03/19 06:06:14;;;;;;;12.73;4.30;;;6.20;96.60;;;;;;5043739;28;20801;-75
2021/03/19 06:08:43;;;;;;;11.33;4.17;;;6.20;96.60;;;;;;5044916;28;20420;-75
2021/03/19 06:11:24;;;;;;;14.20;4.45;;;6.10;96.50;;;;;;5044210;28;20774;-76
2021/03/19 06:13:58;;;;;;;18.52;4.28;;;6.10;96.60;;;;;;5044579;28;20429;-77
2021/03/19 06:16:42;;;;;;;11.13;4.00;;;6.10;96.60;;;;;;5026501;28;22259;-75
2021/03/19 06:19:32;;;;;;;16.37;6.80;;;6.10;96.60;;;;;;5025398;28;20800;-75
2021/03/19 06:22:15;;;;;;;14.90;4.50;;;6.10;96.70;;;;;;5042528;28;21245;-76
2021/03/19 06:24:43;;;;;;;10.20;4.20;;;6.10;96.70;;;;;;5044881;28;20762;-75
2021/03/19 06:27:20;;;;;;;13.15;4.47;;;6.10;96.80;;;;;;5041807;28;20433;-76
2021/03/19 06:29:50;;;;;;;12.25;4.15;;;6.20;96.90;;;;;;5045086;28;20443;-74
2021/03/19 06:32:26;;;;;;;12.88;4.18;;;6.20;97.00;;;;;;5041817;28;21521;-76
2021/03/19 06:35:18;;;;;;;15.40;4.68;;;6.20;97.00;;;;;;5038919;28;20959;-76
2021/03/19 06:37:49;;;;;;;15.13;4.38;;;6.20;97.00;;;;;;5042205;28;20908;-75
2021/03/19 06:40:35;;;;;;;14.30;4.68;;;6.20;97.10;;;;;;5022369;28;20809;-75
2021/03/19 06:43:19;;;;;;;16.60;5.07;;;6.20;97.20;;;;;;5039166;28;20425;-77
2021/03/19 06:45:47;;;;;;;13.20;5.15;;;6.30;97.30;;;;;;5036106;28;20448;-75
2021/03/19 06:48:34;;;;;;;14.65;5.00;;;6.30;97.30;;;;;;5039454;28;20425;-74
2021/03/19 06:51:00;;;;;;;16.73;7.50;;;6.30;97.40;;;;;;5038539;28;20432;-75
2021/03/19 06:53:30;;;;;;;16.85;6.10;;;6.30;97.40;;;;;;5041624;28;20427;-75
2021/03/19 06:56:13;;;;;;;14.82;5.70;;;6.30;97.40;;;;;;5027798;28;20936;-76
2021/03/19 06:58:40;;;;;;;18.30;5.60;;;6.30;97.50;;;;;;5042140;28;20428;-76
2021/03/19 07:01:14;;;;;;;17.45;4.88;;;6.40;97.50;;;;;;5040414;28;20463;-76
2021/03/19 07:04:08;;;;;;;13.63;5.13;;;6.50;98.00;;;;;;5024320;28;20759;-77
2021/03/19 07:06:54;;;;;;;16.40;4.80;;;6.50;97.70;;;;;;5025459;28;20433;-75
2021/03/19 07:09:40;;;;;;;13.50;5.00;;;6.50;97.80;;;;;;5039164;28;20433;-74
2021/03/19 07:12:26;;;;;;;15.63;4.70;;;6.50;97.90;;;;;;5040505;28;20437;-75
2021/03/19 07:15:02;;;;;;;15.77;4.93;;;6.50;98.00;;;;;;5024327;28;21087;-75
2021/03/19 07:17:55;;;;;;;17.48;4.85;;;6.50;98.10;;;;;;5028805;28;20470;-74
2021/03/19 07:20:40;;;;;;;15.67;7.40;;;6.60;98.20;;;;;;5043636;28;20433;-76
2021/03/19 07:23:14;;;;;;;13.47;4.50;;;6.60;98.20;;;;;;5046096;28;20798;-74
2021/03/19 07:26:12;;;;;;;18.10;4.68;;;6.60;98.10;;;;;;5027126;28;20452;-76
2021/03/19 07:29:17;;;;;;;13.32;4.50;;;6.70;98.40;;;;;;5027556;28;20436;-77
2021/03/19 07:32:17;;;;;;;17.85;4.80;;;6.70;98.50;;;;;;5029028;28;20421;-77
2021/03/19 07:35:16;;;;;;;14.73;4.63;;;6.80;98.60;;;;;;5046260;28;20456;-76
2021/03/19 07:38:12;;;;;;;17.13;4.90;;;6.80;98.60;;;;;;5011786;28;20935;-76
2021/03/19 07:40:51;;;;;;;17.57;5.33;;;6.80;98.60;;;;;;5028745;28;20433;-75
2021/03/19 07:43:42;;;;;;;16.75;4.60;;;6.90;98.70;;;;;;5046223;28;20440;-76
2021/03/19 07:46:25;;;;;;;13.83;5.00;;;6.90;98.80;;;;;;5026360;28;20437;-77
2021/03/19 07:49:20;;;;;;;14.13;4.43;;;6.90;98.80;;;;;;5032083;28;20428;-76
2021/03/19 07:52:01;;;;;;;12.73;4.50;;;7.00;98.80;;;;;;5009444;28;20433;-77
2021/03/19 07:54:38;;;;;;;20.17;5.57;;;7.00;99.00;;;;;;5048369;28;20877;-75
2021/03/19 07:57:14;;;;;;;14.95;4.82;;;7.10;99.00;;;;;;5044664;28;20907;-77
2021/03/19 07:59:51;;;;;;;13.30;4.82;;;7.10;99.10;;;;;;5048914;28;20428;-74
2021/03/19 08:02:49;;;;;;;13.90;4.68;;;7.20;99.10;;;;;;5046961;28;20432;-75
2021/03/19 08:05:24;;;;;;;14.67;5.07;;;7.20;99.10;;;;;;5041061;28;20408;-77
2021/03/19 08:08:00;;;;;;;17.40;4.80;;;7.20;98.90;;;;;;5049033;28;20426;-75
2021/03/19 08:10:30;;;;;;;13.65;4.70;;;7.20;98.80;;;;;;5049191;28;20842;-76
2021/03/19 08:13:04;;;;;;;15.35;4.25;;;7.30;99.00;;;;;;5049098;28;20421;-75
2021/03/19 08:15:37;;;;;;;13.70;4.53;;;7.30;99.00;;;;;;5049331;28;20424;-77
2021/03/19 08:18:13;;;;;;;16.00;4.50;;;7.30;98.90;;;;;;5046753;28;20797;-75
2021/03/19 08:20:58;;;;;;;14.98;4.55;;;7.40;99.00;;;;;;5044813;28;20735;-76
2021/03/19 08:23:37;;;;;;;12.73;4.47;;;7.40;99.10;;;;;;5050077;28;20482;-74
2021/03/19 08:26:03;;;;;;;11.90;4.15;;;7.50;99.10;;;;;;5050164;28;20444;-76
2021/03/19 08:28:37;;;;;;;17.00;4.18;;;7.50;98.90;;;;;;5050891;28;20429;-75
2021/03/19 08:31:20;;;;;;;13.88;4.20;;;7.60;98.60;;;;;;5033322;28;20818;-76
2021/03/19 08:33:56;;;;;;;11.02;4.22;;;7.60;98.50;;;;;;5045588;28;20440;-75
2021/03/19 08:36:33;;;;;;;15.13;4.03;;;7.70;98.50;;;;;;5048688;28;20421;-73
2021/03/19 08:39:05;;;;;;;14.63;4.20;;;7.70;98.50;;;;;;5046795;28;20421;-74
2021/03/19 08:41:37;;;;;;;12.38;5.07;;;7.80;98.20;;;;;;5046072;28;20440;-74
2021/03/19 08:44:07;;;;;;;10.73;3.60;;;7.90;97.80;;;;;;5046662;28;20425;-75
2021/03/19 08:46:40;;;;;;;14.45;3.72;;;7.90;97.10;;;;;;5046413;28;20538;-74
2021/03/19 08:49:13;;;;;;;11.55;3.53;;;8.00;96.80;;;;;;5029014;28;20441;-74
2021/03/19 08:51:43;;;;;;;13.50;3.65;;;8.00;96.30;;;;;;5045913;28;20521;-75
2021/03/19 08:54:26;;;;;;;16.17;4.47;;;8.10;96.20;;;;;;5048414;28;20425;-74
2021/03/19 08:56:55;;;;;;;11.98;3.65;;;8.20;95.90;;;;;;5046028;28;20430;-75
2021/03/19 08:59:50;;;;;;;11.55;3.72;;;8.30;95.80;;;;;;5046546;28;20421;-74
2021/03/19 09:02:56;;;;;;;12.00;3.70;;;8.30;95.20;;;;;;5046708;28;20466;-73
2021/03/19 09:05:30;;;;;;;12.57;3.78;;;8.40;95.10;;;;;;5046755;28;20459;-75
2021/03/19 09:08:20;;;;;;;11.95;3.45;;;8.50;94.80;;;;;;5046562;28;20429;-75
2021/03/19 09:11:13;;;;;;;12.70;3.67;;;8.60;94.50;;;;;;5041339;28;20435;-76
2021/03/19 09:14:31;;;;;;;10.38;3.25;;;8.60;94.30;;;;;;5045361;28;20435;-76
2021/03/19 09:16:59;;;;;;;8.53;3.30;;;8.70;93.70;;;;;;5027079;28;20770;-76
2021/03/19 09:19:43;;;;;;;10.32;3.50;;;8.80;93.90;;;;;;5039494;28;20434;-75
2021/03/19 09:22:46;;;;;;;9.95;3.70;;;8.90;93.20;;;;;;5040594;28;20517;-76
2021/03/19 09:25:46;;;;;;;15.02;3.60;;;8.90;93.60;;;;;;5012023;28;20438;-75
2021/03/19 09:28:33;;;;;;;10.25;3.30;;;9.10;93.00;;;;;;5048373;28;20479;-74
2021/03/19 09:31:03;;;;;;;9.05;3.40;;;9.10;92.50;;;;;;5045968;28;21499;-75
2021/03/19 09:34:00;;;;;;;8.57;3.47;;;9.20;92.10;;;;;;5029510;28;20433;-75
2021/03/19 09:37:04;;;;;;;11.05;3.28;;;9.40;91.40;;;;;;5044006;28;20440;-75
2021/03/19 09:40:06;;;;;;;10.45;3.90;;;9.40;90.60;;;;;;4959025;28;20436;-76
2021/03/19 09:42:50;;;;;;;10.55;3.80;;;9.50;90.40;;;;;;4943445;28;20436;-75
2021/03/19 09:46:01;;;;;;;9.98;3.50;;;9.60;90.00;;;;;;5026109;28;20863;-77
2021/03/19 09:48:30;;;;;;;9.23;3.27;;;9.60;89.70;;;;;;5029649;28;20444;-75
2021/03/19 09:51:17;;;;;;;7.43;2.80;;;9.80;89.90;;;;;;5044007;28;20437;-75
2021/03/19 09:53:44;;;;;;;8.35;3.30;;;9.80;84.50;;;;;;5045573;28;20536;-75
2021/03/19 09:56:21;;;;;;;5.15;3.00;;;9.90;82.30;;;;;;5040623;28;20449;-75
2021/03/19 09:58:50;;;;;;;7.35;2.97;;;10.00;83.20;;;;;;5045923;28;20486;-75
2021/03/19 10:01:32;;;;;;;6.30;2.90;;;10.10;80.20;;;;;;5041235;28;20487;-74
2021/03/19 10:04:02;;;;;;;7.15;2.78;;;10.20;78.50;;;;;;5041111;28;20425;-75
2021/03/19 10:06:33;;;;;;;6.68;2.80;;;10.20;76.80;;;;;;5043075;28;20428;-74
2021/03/19 10:09:25;;;;;;;6.85;3.05;;;10.30;75.50;;;;;;5043886;28;20433;-74
2021/03/19 10:11:56;;;;;;;8.98;3.08;;;10.30;76.20;;;;;;5019185;28;20433;-75
2021/03/19 10:14:27;;;;;;;7.88;3.20;;;10.20;76.10;;;;;;5046456;28;20904;-75
2021/03/19 10:17:06;;;;;;;9.15;3.47;;;10.30;77.10;;;;;;5030070;28;20440;-74
2021/03/19 10:19:35;;;;;;;8.20;3.83;;;10.30;77.50;;;;;;5045542;28;20490;-74
2021/03/19 10:22:02;;;;;;;8.50;3.67;;;10.40;78.10;;;;;;5024664;28;20417;-76
2021/03/19 10:24:29;;;;;;;7.82;3.30;;;10.40;78.40;;;;;;5023852;28;20790;-75
2021/03/19 10:27:00;;;;;;;6.30;3.28;;;10.50;78.00;;;;;;5045491;28;20486;-75
2021/03/19 10:29:29;;;;;;;6.75;3.00;;;10.50;77.40;;;;;;5045479;28;20570;-75
2021/03/19 10:31:58;;;;;;;5.17;3.07;;;10.60;74.60;;;;;;5042418;28;20425;-75
2021/03/19 10:34:40;;;;;;;8.87;3.40;;;10.60;73.40;;;;;;5027498;28;20440;-75
2021/03/19 10:37:16;;;;;;;7.50;3.40;;;10.70;73.10;;;;;;5041654;28;20429;-75
2021/03/19 10:39:47;;;;;;;7.28;3.00;;;10.80;73.30;;;;;;5044999;28;20417;-74
2021/03/19 10:42:21;;;;;;;6.72;3.45;;;10.80;73.60;;;;;;5043734;28;20417;-75
2021/03/19 10:44:55;;;;;;;7.78;3.38;;;10.90;73.00;;;;;;5025191;28;20490;-74
2021/03/19 10:47:28;;;;;;;6.07;3.30;;;11.00;73.00;;;;;;5045437;28;20436;-75
2021/03/19 10:49:56;;;;;;;5.97;3.10;;;11.00;70.90;;;;;;5028173;28;20425;-74
2021/03/19 10:52:31;;;;;;;6.75;3.15;;;11.00;70.30;;;;;;5024751;28;20429;-75
2021/03/19 10:55:03;;;;;;;8.57;3.38;;;11.10;70.60;;;;;;5045038;28;20479;-74
2021/03/19 10:57:35;;;;;;;7.18;3.20;;;11.10;71.30;;;;;;5044595;28;20429;-75
2021/03/19 11:00:29;;;;;;;5.53;2.90;;;11.20;72.70;;;;;;5044987;28;20929;-74
2021/03/19 11:02:56;;;;;;;5.07;2.80;;;11.30;69.90;;;;;;5029421;28;20455;-75
2021/03/19 11:05:23;;;;;;;4.95;2.80;;;11.40;68.20;;;;;;5027771;28;20421;-75
2021/03/19 11:07:49;;;;;;;5.72;2.95;;;11.60;67.70;;;;;;5047639;28;20921;-77
2021/03/19 11:10:25;;;;;;;7.28;2.65;;;11.70;67.80;;;;;;5024631;28;20993;-74
2021/03/19 11:12:55;;;;;;;4.80;2.50;;;11.80;66.40;;;;;;5044315;28;20432;-75
2021/03/19 11:15:26;;;;;;;4.97;2.80;;;11.90;65.00;;;;;;5024614;28;20506;-75
2021/03/19 11:18:15;;;;;;;6.75;2.67;;;12.00;65.20;;;;;;5045457;28;20877;-75
2021/03/19 11:20:44;;;;;;;5.23;3.00;;;12.10;65.50;;;;;;5042319;28;20424;-73
2021/03/19 11:23:36;;;;;;;5.40;2.95;;;12.20;64.20;;;;;;5048578;28;20424;-74
2021/03/19 11:26:20;;;;;;;4.75;2.33;;;12.30;63.70;;;;;;5045054;28;20507;-77
2021/03/19 11:28:48;;;;;;;4.65;2.90;;;12.30;63.50;;;;;;5048659;28;20429;-75
2021/03/19 11:31:18;;;;;;;4.60;2.90;;;12.40;62.40;;;;;;5049792;28;20429;-75
2021/03/19 11:34:07;;;;;;;4.85;2.20;;;12.40;62.70;;;;;;5034055;28;20436;-75
2021/03/19 11:36:54;;;;;;;4.93;2.22;;;12.40;60.60;;;;;;5047811;28;20959;-75
2021/03/19 11:39:36;;;;;;;3.08;2.05;;;12.50;59.30;;;;;;5049442;28;20765;-75
2021/03/19 11:42:06;;;;;;;5.82;2.40;;;12.60;58.80;;;;;;5048667;28;20429;-74
2021/03/19 11:44:32;;;;;;;3.85;2.20;;;12.70;58.90;;;;;;5028624;28;20411;-75
2021/03/19 11:47:16;;;;;;;4.35;2.20;;;12.80;59.70;;;;;;5046805;28;20421;-76
2021/03/19 11:49:42;;;;;;;5.38;2.38;;;12.90;58.70;;;;;;5030710;28;20789;-74
2021/03/19 11:52:13;;;;;;;5.60;2.30;;;13.00;58.60;;;;;;5045905;28;20424;-73
2021/03/19 11:54:40;;;;;;;3.55;2.45;;;13.10;58.10;;;;;;5026190;28;20441;-74
2021/03/19 11:57:08;;;;;;;6.82;2.65;;;13.10;58.20;;;;;;5048616;28;20907;-75
2021/03/19 11:59:35;;;;;;;4.65;2.35;;;13.20;57.40;;;;;;5030429;28;20430;-74
2021/03/19 12:02:05;;;;;;;4.22;2.22;;;13.20;56.80;;;;;;5048126;28;20789;-74
2021/03/19 12:04:32;;;;;;;5.50;2.20;;;13.20;57.80;;;;;;5047479;28;20429;-75
2021/03/19 12:06:58;;;;;;;4.50;2.10;;;13.30;56.70;;;;;;5045201;28;20430;-74
2021/03/19 12:09:27;;;;;;;5.38;2.60;;;13.30;56.40;;;;;;5047745;28;20428;-74
2021/03/19 12:11:53;;;;;;;6.07;2.55;;;13.40;57.40;;;;;;5044588;28;21020;-75
2021/03/19 12:14:24;;;;;;;5.70;2.28;;;13.50;58.80;;;;;;5049033;28;20425;-76
2021/03/19 12:16:51;;;;;;;6.20;2.63;;;13.60;59.00;;;;;;5045183;28;20936;-75
2021/03/19 12:19:19;;;;;;;6.05;2.63;;;13.80;58.90;;;;;;5048213;28;20812;-75
2021/03/19 12:21:46;;;;;;;3.95;2.42;;;13.90;58.10;;;;;;5044828;28;20501;-76
2021/03/19 12:24:15;;;;;;;5.93;2.40;;;14.00;57.20;;;;;;5030322;28;20417;-74
2021/03/19 12:26:41;;;;;;;4.90;2.15;;;14.00;56.50;;;;;;5046920;28;20421;-75
2021/03/19 12:29:07;;;;;;;3.88;2.40;;;14.10;55.60;;;;;;5045061;28;21188;-74
2021/03/19 12:31:35;;;;;;;5.65;2.30;;;14.20;55.50;;;;;;5046865;28;20425;-74
2021/03/19 12:34:01;;;;;;;6.20;2.63;;;14.30;56.40;;;;;;5045069;28;20421;-75
2021/03/19 12:36:27;;;;;;;5.95;2.40;;;14.40;56.10;;;;;;5041760;28;20857;-74
2021/03/19 12:38:55;;;;;;;4.93;2.70;;;14.60;56.30;;;;;;5046559;28;20820;-74
2021/03/19 12:41:21;;;;;;;4.85;2.50;;;14.70;56.40;;;;;;5044427;28;20431;-76
2021/03/19 12:43:48;;;;;;;5.25;2.85;;;14.80;56.60;;;;;;5043326;28;20434;-74
2021/03/19 12:46:14;;;;;;;4.93;2.30;;;15.00;56.50;;;;;;5047671;28;20417;-73
2021/03/19 12:48:42;;;;;;;5.82;2.45;;;15.20;55.40;;;;;;5048404;28;20487;-74
2021/03/19 12:51:09;;;;;;;5.75;2.47;;;15.40;55.00;;;;;;5046590;28;20425;-76
2021/03/19 12:53:35;;;;;;;7.28;4.10;;;15.60;54.70;;;;;;5029427;28;20737;-74
2021/03/19 12:56:05;;;;;;;5.10;2.50;;;15.70;53.70;;;;;;5048827;28;20886;-76
2021/03/19 12:58:32;;;;;;;4.80;2.38;;;15.90;53.20;;;;;;5043484;28;20426;-74
2021/03/19 13:00:58;;;;;;;3.33;2.08;;;16.00;52.10;;;;;;5047954;28;20425;-73
2021/03/19 13:03:26;;;;;;;4.60;2.05;;;16.10;52.40;;;;;;5029338;28;20433;-74
2021/03/19 13:05:53;;;;;;;3.72;2.22;;;16.40;51.50;;;;;;5047967;28;20901;-74
2021/03/19 13:08:20;;;;;;;4.27;2.07;;;16.50;51.40;;;;;;5029694;28;20516;-74
2021/03/19 13:10:46;;;;;;;6.35;2.13;;;16.70;49.80;;;;;;5051045;28;20429;-74
2021/03/19 13:13:13;;;;;;;5.20;2.00;;;16.80;50.10;;;;;;5043909;28;20509;-74
2021/03/19 13:15:40;;;;;;;4.93;1.80;;;16.90;49.10;;;;;;5029742;28;20421;-74
2021/03/19 13:18:08;;;;;;;5.25;2.30;;;17.10;48.40;;;;;;5028284;28;20425;-75
2021/03/19 13:20:35;;;;;;;7.20;2.22;;;17.10;48.80;;;;;;5044724;28;20432;-75
2021/03/19 13:23:03;;;;;;;4.53;2.10;;;17.20;47.30;;;;;;5045061;28;20425;-76
2021/03/19 13:25:31;;;;;;;4.85;2.00;;;17.30;47.70;;;;;;5045333;28;20928;-75
2021/03/19 13:28:00;;;;;;;5.32;2.00;;;17.40;47.60;;;;;;5045321;28;20433;-74
2021/03/19 13:30:29;;;;;;;5.25;1.80;;;17.50;47.40;;;;;;5046695;28;20432;-74